createdAt,value
2019-01-05T00:00:03.434Z,97991.86
2019-01-05T00:02:49.737Z,97989.28
2019-01-05T00:05:40.798Z,97983.02
2019-01-05T00:08:43.609Z,97986.19
2019-01-05T00:11:33.763Z,97982.30
2019-01-05T00:14:22.968Z,97990.55
2019-01-05T00:17:13.919Z,97979.63
2019-01-05T00:20:22.870Z,97985.91
2019-01-05T00:23:25.709Z,97989.36
2019-01-05T00:26:13.632Z,97968.52
2019-01-05T00:29:05.941Z,97974.66
2019-01-05T00:32:06.107Z,97968.83
2019-01-05T00:35:10.407Z,97974.92
2019-01-05T00:38:00.487Z,97966.07
2019-01-05T00:40:50.177Z,97968.12
2019-01-05T00:43:53.325Z,97970.25
2019-01-05T00:46:44.842Z,97972.19
2019-01-05T00:49:31.125Z,97973.25
2019-01-05T00:52:26.246Z,97968.72
2019-01-05T00:55:17.696Z,97974.67
2019-01-05T00:58:08.781Z,97970.12
2019-01-05T01:00:57.985Z,97978.92
2019-01-05T01:03:47.557Z,97977.48
2019-01-05T01:06:36.849Z,97968.44
2019-01-05T01:09:30.951Z,97969.35
2019-01-05T01:12:20.658Z,97970.27
2019-01-05T01:15:10.298Z,97969.42
2019-01-05T01:17:59.983Z,97964.19
2019-01-05T01:20:51.223Z,97962.75
2019-01-05T01:23:40.819Z,97957.50
2019-01-05T01:26:22.679Z,97960.05
2019-01-05T01:29:25.811Z,97957.46
2019-01-05T01:32:15.263Z,97959.71
2019-01-05T01:35:08.937Z,97952.68
2019-01-05T01:38:43.119Z,97955.63
2019-01-05T01:42:10.362Z,97943.23
2019-01-05T01:45:04.681Z,97938.81
2019-01-05T01:47:55.783Z,97944.31
2019-01-05T01:50:45.514Z,97934.42
2019-01-05T01:53:38.188Z,97932.08
2019-01-05T01:56:35.269Z,97935.19
2019-01-05T01:59:49.004Z,97939.59
2019-01-05T02:02:44.245Z,97939.39
2019-01-05T02:05:35.801Z,97938.42
2019-01-05T02:08:39.157Z,97940.63
2019-01-05T02:11:36.645Z,97932.55
2019-01-05T02:14:30.290Z,97934.36
2019-01-05T02:17:36.904Z,97934.30
2019-01-05T02:21:23.960Z,97931.45
2019-01-05T02:25:00.717Z,97928.86
2019-01-05T02:28:33.084Z,97927.23
2019-01-05T02:32:27.614Z,97924.25
2019-01-05T02:36:14.026Z,97909.23
2019-01-05T02:39:58.723Z,97916.67
2019-01-05T02:43:49.809Z,97910.62
2019-01-05T02:47:46.646Z,97899.75
2019-01-05T02:51:18.292Z,97890.36
2019-01-05T02:55:11.275Z,97877.84
2019-01-05T02:59:21.548Z,97869.72
2019-01-05T03:03:14.715Z,97861.17
2019-01-05T03:06:42.224Z,97842.03
2019-01-05T03:10:11.902Z,97834.78
2019-01-05T03:13:36.237Z,97838.27
2019-01-05T03:17:55.987Z,97833.48
2019-01-05T03:21:45.893Z,97832.38
2019-01-05T03:25:31.554Z,97830.98
2019-01-05T03:29:13.953Z,97824.61
2019-01-05T03:32:50.722Z,97821.68
2019-01-05T03:36:36.077Z,97822.52
2019-01-05T03:40:35.928Z,97812.86
2019-01-05T03:44:52.498Z,97800.59
2019-01-05T03:48:57.462Z,97798.39
2019-01-05T03:52:41.348Z,97794.55
2019-01-05T03:56:27.862Z,97776.17
2019-01-05T04:00:14.790Z,97763.06
2019-01-05T04:03:40.670Z,97761.81
2019-01-05T04:07:12.578Z,97752.49
2019-01-05T04:11:10.967Z,97743.16
2019-01-05T04:15:23.515Z,97738.65
2019-01-05T04:19:00.092Z,97727.27
2019-01-05T04:22:33.180Z,97725.20
2019-01-05T04:26:36.818Z,97721.98
2019-01-05T04:30:01.690Z,97719.05
2019-01-05T04:33:42.213Z,97709.34
2019-01-05T04:37:45.058Z,97706.85
2019-01-05T04:41:36.930Z,97705.78
2019-01-05T04:45:41.759Z,97714.39
2019-01-05T04:49:22.413Z,97709.69
2019-01-05T04:53:36.068Z,97704.16
2019-01-05T04:57:26.116Z,97704.52
2019-01-05T05:01:18.838Z,97688.38
2019-01-05T05:04:49.809Z,97674.53
2019-01-05T05:08:36.899Z,97679.32
2019-01-05T05:12:16.575Z,97666.61
2019-01-05T05:15:58.421Z,97658.23
2019-01-05T05:19:46.282Z,97661.83
2019-01-05T05:23:21.904Z,97659.63
2019-01-05T05:27:01.781Z,97665.09
2019-01-05T05:30:37.701Z,97664.34
2019-01-05T05:34:50.970Z,97655.97
2019-01-05T05:38:48.064Z,97648.95
2019-01-05T05:42:22.086Z,97648.14
2019-01-05T05:45:57.603Z,97641.42
2019-01-05T05:49:39.630Z,97637.53
2019-01-05T05:53:45.226Z,97638.16
2019-01-05T05:57:58.165Z,97642.58
2019-01-05T06:02:05.672Z,97636.24
2019-01-05T06:06:15.373Z,97626.57
2019-01-05T06:09:53.196Z,97622.89
2019-01-05T06:13:52.377Z,97623.25
2019-01-05T06:17:52.300Z,97619.20
2019-01-05T06:21:31.051Z,97624.28
2019-01-05T06:25:12.264Z,97615.84
2019-01-05T06:29:09.201Z,97628.77
2019-01-05T06:32:53.601Z,97629.61
2019-01-05T06:36:37.717Z,97619.06
2019-01-05T06:40:28.413Z,97607.37
2019-01-05T06:44:25.510Z,97602.06
2019-01-05T06:47:54.276Z,97603.48
2019-01-05T06:51:36.809Z,97601.48
2019-01-05T06:55:31.367Z,97597.53
2019-01-05T06:59:18.160Z,97593.20
2019-01-05T07:03:09.232Z,97593.88
2019-01-05T07:06:59.119Z,97597.92
2019-01-05T07:10:29.778Z,97589.03
2019-01-05T07:14:16.759Z,97596.02
2019-01-05T07:18:05.486Z,97585.84
2019-01-05T07:22:02.436Z,97597.34
2019-01-05T07:25:47.495Z,97585.25
2019-01-05T07:29:44.965Z,97588.69
2019-01-05T07:33:42.354Z,97591.49
2019-01-05T07:37:20.187Z,97578.63
2019-01-05T07:41:06.817Z,97575.94
2019-01-05T07:44:49.606Z,97578.50
2019-01-05T07:48:56.475Z,97589.97
2019-01-05T07:52:33.048Z,97594.50
2019-01-05T07:56:20.341Z,97585.28
2019-01-05T08:00:15.622Z,97573.41
2019-01-05T08:04:04.867Z,97564.95
2019-01-05T08:08:02.759Z,97557.03
2019-01-05T08:11:53.171Z,97564.95
2019-01-05T08:15:31.660Z,97558.80
2019-01-05T08:19:29.024Z,97570.27
2019-01-05T08:23:32.254Z,97567.03
2019-01-05T08:27:34.044Z,97572.80
2019-01-05T08:31:27.555Z,97564.06
2019-01-05T08:35:17.925Z,97569.08
2019-01-05T08:39:52.021Z,97575.84
2019-01-05T08:43:50.127Z,97575.25
2019-01-05T08:47:38.970Z,97566.14
2019-01-05T08:51:29.911Z,97576.13
2019-01-05T08:55:35.699Z,97574.80
2019-01-05T08:59:02.934Z,97576.55
2019-01-05T09:02:46.407Z,97575.16
2019-01-05T09:06:21.222Z,97558.72
2019-01-05T09:10:45.060Z,97563.36
2019-01-05T09:14:45.726Z,97570.14
2019-01-05T09:18:30.336Z,97571.08
2019-01-05T09:22:25.785Z,97568.24
2019-01-05T09:26:17.467Z,97577.47
2019-01-05T09:30:53.392Z,97588.73
2019-01-05T09:35:15.560Z,97576.23
2019-01-05T09:38:53.167Z,97563.08
2019-01-05T09:42:49.101Z,97573.34
2019-01-05T09:46:44.686Z,97558.20
2019-01-05T09:50:39.270Z,97558.29
2019-01-05T09:54:44.843Z,97565.88
2019-01-05T09:58:41.844Z,97559.12
2019-01-05T10:02:28.259Z,97561.95
2019-01-05T10:06:23.680Z,97561.78
2019-01-05T10:10:14.629Z,97575.80
2019-01-05T10:13:47.962Z,97566.09
2019-01-05T10:18:02.625Z,97561.09
2019-01-05T10:22:05.593Z,97555.83
2019-01-05T10:26:01.443Z,97559.58
2019-01-05T10:29:50.690Z,97550.66
2019-01-05T10:33:34.924Z,97558.81
2019-01-05T10:37:21.335Z,97555.70
2019-01-05T10:41:21.920Z,97550.05
2019-01-05T10:45:03.956Z,97554.19
2019-01-05T10:48:56.178Z,97544.06
2019-01-05T10:52:56.263Z,97540.31
2019-01-05T10:56:42.337Z,97543.22
2019-01-05T11:00:15.098Z,97534.53
2019-01-05T11:04:00.818Z,97520.77
2019-01-05T11:08:00.790Z,97525.03
2019-01-05T11:11:59.109Z,97522.97
2019-01-05T11:16:16.461Z,97514.13
2019-01-05T11:20:15.559Z,97532.25
2019-01-05T11:24:00.284Z,97529.30
2019-01-05T11:28:09.391Z,97528.59
2019-01-05T11:31:39.815Z,97519.55
2019-01-05T11:35:32.214Z,97519.02
2019-01-05T11:39:04.357Z,97531.64
2019-01-05T11:42:44.997Z,97521.16
2019-01-05T11:46:49.427Z,97523.95
2019-01-05T11:50:40.387Z,97514.13
2019-01-05T11:54:49.318Z,97511.02
2019-01-05T11:58:40.812Z,97508.81
2019-01-05T12:02:20.597Z,97511.33
2019-01-05T12:06:24.764Z,97498.68
2019-01-05T12:10:20.472Z,97490.92
2019-01-05T12:14:19.249Z,97489.86
2019-01-05T12:18:43.318Z,97496.86
2019-01-05T12:22:38.046Z,97496.94
2019-01-05T12:26:40.266Z,97489.38
2019-01-05T12:30:36.058Z,97486.13
2019-01-05T12:34:40.185Z,97482.77
2019-01-05T12:38:23.489Z,97483.16
2019-01-05T12:42:24.299Z,97490.53
2019-01-05T12:46:33.492Z,97483.53
2019-01-05T12:50:23.207Z,97473.39
2019-01-05T12:54:16.204Z,97483.53
2019-01-05T12:58:07.949Z,97479.40
2019-01-05T13:02:09.554Z,97477.48
2019-01-05T13:06:02.073Z,97480.70
2019-01-05T13:09:44.680Z,97481.50
2019-01-05T13:13:50.391Z,97480.45
2019-01-05T13:17:56.698Z,97498.58
2019-01-05T13:21:45.451Z,97494.76
2019-01-05T13:25:34.873Z,97496.62
2019-01-05T13:29:18.549Z,97493.78
2019-01-05T13:33:06.801Z,97491.41
2019-01-05T13:37:20.541Z,97492.03
2019-01-05T13:41:08.940Z,97492.80
2019-01-05T13:45:08.085Z,97493.08
2019-01-05T13:49:07.033Z,97505.12
2019-01-05T13:52:52.148Z,97514.07
2019-01-05T13:55:56.310Z,97515.86
2019-01-05T13:58:59.277Z,97511.97
2019-01-05T14:01:48.643Z,97514.07
2019-01-05T14:04:38.219Z,97506.16
2019-01-05T14:07:27.809Z,97506.92
2019-01-05T14:10:36.589Z,97508.69
2019-01-05T14:13:26.017Z,97514.70
2019-01-05T14:16:10.708Z,97512.18
2019-01-05T14:19:10.243Z,97522.29
2019-01-05T14:22:16.154Z,97521.55
2019-01-05T14:25:21.556Z,97520.92
2019-01-05T14:28:24.279Z,97525.79
2019-01-05T14:31:13.369Z,97526.63
2019-01-05T14:34:13.722Z,97519.31
2019-01-05T14:37:23.752Z,97513.08
2019-01-05T14:40:32.443Z,97518.58
2019-01-05T14:43:23.526Z,97523.06
2019-01-05T14:46:20.177Z,97533.28
2019-01-05T14:49:09.703Z,97528.69
2019-01-05T14:51:59.251Z,97540.10
2019-01-05T14:54:48.761Z,97537.19
2019-01-05T14:57:41.902Z,97537.81
2019-01-05T15:00:36.159Z,97539.64
2019-01-05T15:03:25.550Z,97535.95
2019-01-05T15:06:16.442Z,97538.93
2019-01-05T15:09:10.008Z,97531.09
2019-01-05T15:12:09.864Z,97529.55
2019-01-05T15:15:00.633Z,97530.04
2019-01-05T15:17:51.484Z,97539.13
2019-01-05T15:20:54.381Z,97535.50
2019-01-05T15:23:49.179Z,97535.03
2019-01-05T15:26:48.968Z,97535.48
2019-01-05T15:29:48.794Z,97540.81
2019-01-05T15:32:38.047Z,97543.20
2019-01-05T15:35:38.055Z,97542.49
2019-01-05T15:38:37.579Z,97546.13
2019-01-05T15:41:31.220Z,97546.13
2019-01-05T15:44:25.847Z,97545.67
2019-01-05T15:47:16.645Z,97537.55
2019-01-05T15:50:10.533Z,97539.95
2019-01-05T15:52:59.919Z,97543.14
2019-01-05T15:55:49.500Z,97543.31
2019-01-05T15:58:52.271Z,97533.16
2019-01-05T16:01:58.007Z,97527.59
2019-01-05T16:05:03.575Z,97537.22
2019-01-05T16:07:57.354Z,97540.93
2019-01-05T16:10:47.055Z,97540.78
2019-01-05T16:13:37.807Z,97543.05
2019-01-05T16:16:36.104Z,97541.84
2019-01-05T16:19:25.781Z,97545.13
2019-01-05T16:22:28.449Z,97545.71
2019-01-05T16:25:37.499Z,97546.22
2019-01-05T16:28:46.388Z,97552.12
2019-01-05T16:31:36.910Z,97549.73
2019-01-05T16:34:26.142Z,97559.89
2019-01-05T16:37:28.721Z,97556.41
2019-01-05T16:40:25.439Z,97544.01
2019-01-05T16:43:28.250Z,97551.98
2019-01-05T16:46:24.805Z,97553.01
2019-01-05T16:49:27.909Z,97553.52
2019-01-05T16:52:18.724Z,97552.11
2019-01-05T16:55:06.732Z,97545.86
2019-01-05T16:58:03.707Z,97552.30
2019-01-05T17:01:03.303Z,97545.36
2019-01-05T17:03:56.852Z,97551.31
2019-01-05T17:06:47.969Z,97545.06
2019-01-05T17:09:51.319Z,97549.34
2019-01-05T17:13:00.738Z,97550.86
2019-01-05T17:15:56.479Z,97543.20
2019-01-05T17:18:50.260Z,97550.14
2019-01-05T17:21:59.455Z,97555.26
2019-01-05T17:24:50.656Z,97553.42
2019-01-05T17:27:44.478Z,97555.30
2019-01-05T17:30:38.064Z,97558.28
2019-01-05T17:33:29.941Z,97551.41
2019-01-05T17:36:21.041Z,97556.98
2019-01-05T17:39:09.865Z,97556.22
2019-01-05T17:41:59.116Z,97551.59
2019-01-05T17:44:50.074Z,97561.33
2019-01-05T17:47:52.775Z,97553.16
2019-01-05T17:50:42.147Z,97558.31
2019-01-05T17:53:38.627Z,97554.39
2019-01-05T17:56:39.095Z,97555.80
2019-01-05T17:59:36.914Z,97555.34
2019-01-05T18:02:20.137Z,97559.61
2019-01-05T18:05:17.014Z,97563.63
2019-01-05T18:08:06.425Z,97562.41
2019-01-05T18:10:53.696Z,97565.38
2019-01-05T18:13:57.244Z,97566.14
2019-01-05T18:16:49.992Z,97571.45
2019-01-05T18:19:52.550Z,97568.31
2019-01-05T18:22:39.805Z,97575.76
2019-01-05T18:25:28.995Z,97577.59
2019-01-05T18:28:12.148Z,97578.78
2019-01-05T18:31:09.187Z,97581.75
2019-01-05T18:34:06.172Z,97578.59
2019-01-05T18:36:52.223Z,97580.45
2019-01-05T18:39:55.059Z,97582.43
2019-01-05T18:43:00.446Z,97578.78
2019-01-05T18:45:50.034Z,97579.50
2019-01-05T18:48:34.073Z,97583.43
2019-01-05T18:51:24.871Z,97582.13
2019-01-05T18:54:14.304Z,97581.37
2019-01-05T18:57:08.222Z,97586.18
2019-01-05T19:00:14.371Z,97585.98
2019-01-05T19:03:15.424Z,97587.25
2019-01-05T19:06:09.024Z,97586.90
2019-01-05T19:09:16.609Z,97583.90
2019-01-05T19:12:17.420Z,97580.95
2019-01-05T19:15:17.871Z,97584.39
2019-01-05T19:18:07.752Z,97578.09
2019-01-05T19:21:13.769Z,97584.05
2019-01-05T19:24:03.568Z,97580.84
2019-01-05T19:26:58.942Z,97575.99
2019-01-05T19:30:00.380Z,97572.02
2019-01-05T19:32:50.526Z,97573.12
2019-01-05T19:35:49.620Z,97580.19
2019-01-05T19:38:38.742Z,97586.11
2019-01-05T19:41:46.295Z,97579.16
2019-01-05T19:44:39.755Z,97579.00
2019-01-05T19:47:29.216Z,97578.32
2019-01-05T19:50:18.762Z,97583.05
2019-01-05T19:53:09.570Z,97581.67
2019-01-05T19:55:52.994Z,97580.53
2019-01-05T19:59:01.572Z,97583.35
2019-01-05T20:02:09.133Z,97590.77
2019-01-05T20:05:17.841Z,97585.76
2019-01-05T20:08:07.479Z,97589.62
2019-01-05T20:10:56.612Z,97589.47
2019-01-05T20:13:58.638Z,97580.91
2019-01-05T20:16:52.687Z,97583.70
2019-01-05T20:19:33.076Z,97575.56
2019-01-05T20:22:35.844Z,97570.02
2019-01-05T20:25:32.454Z,97571.86
2019-01-05T20:28:21.960Z,97573.92
2019-01-05T20:31:12.643Z,97577.81
2019-01-05T20:34:18.494Z,97570.95
2019-01-05T20:37:09.248Z,97573.84
2019-01-05T20:39:54.003Z,97569.57
2019-01-05T20:42:43.059Z,97571.97
2019-01-05T20:45:39.598Z,97577.05
2019-01-05T20:48:30.281Z,97577.28
2019-01-05T20:51:19.619Z,97572.24
2019-01-05T20:54:11.459Z,97575.14
2019-01-05T20:57:04.936Z,97579.69
2019-01-05T20:59:51.893Z,97581.36
2019-01-05T21:02:41.074Z,97580.11
2019-01-05T21:05:42.170Z,97580.33
2019-01-05T21:08:44.590Z,97581.06
2019-01-05T21:11:47.860Z,97582.92
2019-01-05T21:14:37.446Z,97586.82
2019-01-05T21:17:35.452Z,97581.62
2019-01-05T21:20:26.409Z,97592.50
2019-01-05T21:23:26.642Z,97586.17
2019-01-05T21:26:15.948Z,97585.25
2019-01-05T21:29:16.316Z,97588.47
2019-01-05T21:32:05.693Z,97586.25
2019-01-05T21:34:55.426Z,97599.45
2019-01-05T21:37:40.672Z,97591.94
2019-01-05T21:40:37.466Z,97594.53
2019-01-05T21:43:26.736Z,97594.34
2019-01-05T21:46:17.421Z,97591.86
2019-01-05T21:49:09.441Z,97596.12
2019-01-05T21:52:00.207Z,97597.31
2019-01-05T21:54:49.940Z,97597.70
2019-01-05T21:57:35.167Z,97595.10
2019-01-05T22:00:35.403Z,97597.09
2019-01-05T22:03:30.408Z,97601.21
2019-01-05T22:06:19.892Z,97605.65
2019-01-05T22:09:10.737Z,97598.05
2019-01-05T22:12:10.248Z,97601.48
2019-01-05T22:14:59.960Z,97597.12
2019-01-05T22:17:49.108Z,97599.19
2019-01-05T22:20:38.108Z,97600.41
2019-01-05T22:23:22.888Z,97595.10
2019-01-05T22:26:13.808Z,97594.61
2019-01-05T22:29:03.186Z,97598.05
2019-01-05T22:31:52.250Z,97598.19
2019-01-05T22:34:46.030Z,97601.59
2019-01-05T22:37:46.333Z,97607.89
2019-01-05T22:40:33.441Z,97601.97
2019-01-05T22:43:39.376Z,97607.28
2019-01-05T22:46:29.372Z,97604.57
2019-01-05T22:49:18.624Z,97606.22
2019-01-05T22:52:10.292Z,97606.98
2019-01-05T22:54:56.548Z,97606.22
2019-01-05T22:58:05.427Z,97604.11
2019-01-05T23:00:51.562Z,97600.41
2019-01-05T23:03:57.876Z,97604.68
2019-01-05T23:06:42.151Z,97601.41
2019-01-05T23:09:38.683Z,97602.19
2019-01-05T23:12:33.721Z,97605.17
2019-01-05T23:15:25.841Z,97593.13
2019-01-05T23:18:22.652Z,97602.89
2019-01-05T23:21:12.159Z,97600.87
2019-01-05T23:24:11.111Z,97601.13
2019-01-05T23:27:06.343Z,97603.66
2019-01-05T23:30:00.927Z,97600.67
2019-01-05T23:32:44.715Z,97600.56
2019-01-05T23:35:41.166Z,97601.70
2019-01-05T23:38:38.367Z,97603.46
2019-01-05T23:41:38.150Z,97594.94
2019-01-05T23:44:27.226Z,97596.75
2019-01-05T23:47:16.739Z,97595.86
2019-01-05T23:50:03.517Z,97596.75
2019-01-05T23:52:54.343Z,97600.52
2019-01-05T23:56:01.092Z,97595.32
2019-01-05T23:59:07.020Z,97597.62
